Main page
METAR-TAF:

METAR-TAF

Airports :

Beijing, China

Beijing Capital International Airport

latitude: 39-56N, longitude: 116-17E, elevation: 55 m

Current weather observation

The report was made 28 minutes ago, at 15:30 UTC
Wind 8 kt from the South
Temperature 18°C
Humidity 56%
Pressure 1010 hPa
Visibility 10 km or more
no clouds below 1500 m and no cumulonimbus

METAR: ZBAA 251530Z 18004MPS CAVOK 18/09 Q1010 NOSIG

Time: 23:58 (15:58 UTC)

Forecast

The report was made 6 hours and 38 minutes ago, at 09:20 UTC
Forecast valid from 25 at 12 UTC to 26 at 12 UTC
Wind 8 kt from the North
Visibility 10 km or more
no clouds below 1500 m and no cumulonimbus

TAF: ZBAA 250920Z 2512/2612 36004MPS CAVOK TX26/2607Z TN10/2521Z

Weather observations and forecasts of more than 4000 airports (METAR and TAF reports).

The available stations are represented by yellow and red dots on the map.

Hover mouse over dot to see the name of the station.

Then click to see weather observations and forecasts.

To change the map : click on the green buttons with a black cross to zoom in, on the green button with a dash to zoom out, or on the green arrows for adjacent maps.


METAR-TAF: